Time;durP1;ratioP1;P1;durP2;ratioP2;P2;SDS_P1;SDS_P2;PMS_P1;PMS_P2;Temp;Humidity;BMP_temperature;BMP_pressure;BME280_temperature;BME280_humidity;BME280_pressure;Samples;Min_cycle;Max_cycle;Signal;HPM_P1;HPM_P2
2022/04/12 00:01:54;;;;;;;11.23;3.97;;;;;;;;;;5107212;28;20023;-72
2022/04/12 00:04:21;;;;;;;8.02;4.03;;;;;;;;;;5107307;28;20398;-72
2022/04/12 00:06:47;;;;;;;8.68;4.15;;;;;;;;;;5107423;28;20020;-72
2022/04/12 00:09:14;;;;;;;8.80;4.15;;;;;;;;;;5109953;28;20027;-71
2022/04/12 00:11:42;;;;;;;10.75;4.20;;;;;;;;;;5112593;28;20047;-72
2022/04/12 00:14:09;;;;;;;11.80;4.47;;;;;;;;;;5112667;28;20059;-72
2022/04/12 00:16:35;;;;;;;10.75;4.53;;;;;;;;;;5112600;28;20020;-71
2022/04/12 00:19:05;;;;;;;10.10;4.15;;;;;;;;;;5112860;28;20513;-71
2022/04/12 00:21:34;;;;;;;6.13;4.10;;;;;;;;;;5109612;28;20080;-71
2022/04/12 00:24:02;;;;;;;8.60;4.07;;;;;;;;;;5107049;28;20653;-72
2022/04/12 00:26:28;;;;;;;9.88;4.07;;;;;;;;;;5106808;28;20441;-71
2022/04/12 00:28:55;;;;;;;8.73;5.03;;;;;;;;;;5107081;28;20034;-71
2022/04/12 00:31:22;;;;;;;8.88;4.20;;;;;;;;;;5108737;28;20035;-71
2022/04/12 00:33:48;;;;;;;10.80;4.10;;;;;;;;;;5112381;28;20032;-74
2022/04/12 00:36:15;;;;;;;8.90;4.25;;;;;;;;;;5112117;28;20032;-73
2022/04/12 00:38:42;;;;;;;8.20;4.40;;;;;;;;;;5112459;28;20470;-72
2022/04/12 00:41:11;;;;;;;10.33;5.00;;;;;;;;;;5112147;28;20031;-73
2022/04/12 00:43:38;;;;;;;32.20;5.17;;;;;;;;;;5110444;28;20023;-73
2022/04/12 00:46:05;;;;;;;9.73;4.80;;;;;;;;;;5107332;28;20047;-72
2022/04/12 00:48:32;;;;;;;9.90;4.73;;;;;;;;;;5106987;28;20019;-72
2022/04/12 00:50:59;;;;;;;11.07;4.90;;;;;;;;;;5106985;28;20075;-72
2022/04/12 00:53:27;;;;;;;7.60;5.03;;;;;;;;;;5107675;28;20428;-71
2022/04/12 00:55:54;;;;;;;9.40;4.70;;;;;;;;;;5112108;28;20023;-71
2022/04/12 00:58:20;;;;;;;8.63;5.07;;;;;;;;;;5112201;28;20038;-72
2022/04/12 01:00:49;;;;;;;10.70;5.03;;;;;;;;;;5112055;28;20032;-71
2022/04/12 01:03:16;;;;;;;14.23;5.70;;;;;;;;;;5112270;28;20092;-71
2022/04/12 01:05:43;;;;;;;12.70;5.97;;;;;;;;;;5110792;28;20478;-71
2022/04/12 01:08:10;;;;;;;15.03;6.00;;;;;;;;;;5106802;28;20056;-71
2022/04/12 01:10:37;;;;;;;11.53;5.63;;;;;;;;;;5106419;28;20118;-71
2022/04/12 01:13:04;;;;;;;11.93;5.93;;;;;;;;;;5109619;28;20031;-72
2022/04/12 01:15:31;;;;;;;19.37;6.47;;;;;;;;;;5110524;28;20027;-72
2022/04/12 01:17:57;;;;;;;15.57;6.33;;;;;;;;;;5115817;28;20107;-71
2022/04/12 01:20:28;;;;;;;14.60;6.37;;;;;;;;;;5115775;28;20478;-71
2022/04/12 01:22:58;;;;;;;10.00;5.50;;;;;;;;;;5115745;28;20073;-71
2022/04/12 01:25:25;;;;;;;11.47;6.23;;;;;;;;;;5115768;28;20506;-71
2022/04/12 01:27:52;;;;;;;15.27;6.30;;;;;;;;;;5114160;28;20023;-72
2022/04/12 01:30:18;;;;;;;15.63;6.77;;;;;;;;;;5110791;28;20032;-73
2022/04/12 01:32:45;;;;;;;16.93;6.40;;;;;;;;;;5110110;28;20462;-73
2022/04/12 01:35:12;;;;;;;16.10;6.23;;;;;;;;;;5110449;28;20128;-73
2022/04/12 01:37:39;;;;;;;14.83;6.80;;;;;;;;;;5110264;28;20026;-72
2022/04/12 01:40:06;;;;;;;9.57;5.43;;;;;;;;;;5115237;28;20543;-71
2022/04/12 01:42:33;;;;;;;15.07;6.57;;;;;;;;;;5115452;28;20036;-72
2022/04/12 01:45:00;;;;;;;15.30;7.30;;;;;;;;;;5115058;28;20020;-71
2022/04/12 01:47:26;;;;;;;12.43;6.67;;;;;;;;;;5115658;28;20497;-71
2022/04/12 01:49:53;;;;;;;14.47;6.60;;;;;;;;;;5115015;28;20024;-71
2022/04/12 01:52:21;;;;;;;9.33;5.83;;;;;;;;;;5110422;28;20049;-71
2022/04/12 01:54:48;;;;;;;11.40;6.80;;;;;;;;;;5109492;28;20023;-71
2022/04/12 01:57:14;;;;;;;11.23;6.27;;;;;;;;;;5110224;28;20023;-71
2022/04/12 01:59:42;;;;;;;9.03;6.10;;;;;;;;;;5109855;28;20032;-71
2022/04/12 02:02:09;;;;;;;12.43;6.53;;;;;;;;;;5114040;28;20401;-71
2022/04/12 02:04:36;;;;;;;10.67;6.47;;;;;;;;;;5114704;28;20069;-71
2022/04/12 02:07:03;;;;;;;7.63;5.97;;;;;;;;;;5114981;28;20490;-71
2022/04/12 02:09:30;;;;;;;12.60;5.77;;;;;;;;;;5114918;28;20355;-71
2022/04/12 02:11:58;;;;;;;14.73;6.83;;;;;;;;;;5114810;28;20039;-71
2022/04/12 02:14:24;;;;;;;10.97;6.33;;;;;;;;;;5110568;28;20031;-71
2022/04/12 02:16:51;;;;;;;11.37;5.97;;;;;;;;;;5109699;28;20107;-71
2022/04/12 02:19:18;;;;;;;9.10;5.93;;;;;;;;;;5109026;28;20016;-71
2022/04/12 02:21:44;;;;;;;6.57;5.10;;;;;;;;;;5109741;28;20027;-71
2022/04/12 02:24:11;;;;;;;11.30;6.43;;;;;;;;;;5111740;28;20485;-71
2022/04/12 02:26:38;;;;;;;12.73;5.77;;;;;;;;;;5114834;28;20587;-70
2022/04/12 02:29:06;;;;;;;15.13;7.27;;;;;;;;;;5114909;28;20043;-70
2022/04/12 02:31:33;;;;;;;18.10;7.57;;;;;;;;;;5114938;28;20436;-70
2022/04/12 02:34:00;;;;;;;9.93;5.20;;;;;;;;;;5114403;28;20123;-70
2022/04/12 02:36:27;;;;;;;9.80;5.97;;;;;;;;;;5110843;28;20024;-70
2022/04/12 02:38:53;;;;;;;8.40;5.00;;;;;;;;;;5109424;28;20055;-70
2022/04/12 02:41:20;;;;;;;10.00;6.03;;;;;;;;;;5109385;28;20078;-70
2022/04/12 02:43:47;;;;;;;10.90;6.47;;;;;;;;;;5108752;28;20059;-69
2022/04/12 02:46:14;;;;;;;12.03;6.60;;;;;;;;;;5111980;28;20023;-70
2022/04/12 02:48:41;;;;;;;8.90;6.10;;;;;;;;;;5114461;28;20039;-69
2022/04/12 02:51:07;;;;;;;8.80;6.20;;;;;;;;;;5114487;28;20027;-69
2022/04/12 02:53:34;;;;;;;10.07;6.33;;;;;;;;;;5113793;28;20075;-70
2022/04/12 02:56:01;;;;;;;11.50;5.70;;;;;;;;;;5113851;28;20031;-70
2022/04/12 02:58:28;;;;;;;10.80;5.20;;;;;;;;;;5111305;28;20027;-69
2022/04/12 03:00:54;;;;;;;10.83;5.67;;;;;;;;;;5108937;28;20023;-69
2022/04/12 03:03:21;;;;;;;12.40;5.30;;;;;;;;;;5108594;28;20046;-69
2022/04/12 03:05:48;;;;;;;8.97;5.50;;;;;;;;;;5108581;28;20024;-69
2022/04/12 03:08:14;;;;;;;9.17;6.20;;;;;;;;;;5110437;28;20019;-69
2022/04/12 03:10:41;;;;;;;12.10;6.20;;;;;;;;;;5113887;28;20091;-69
2022/04/12 03:13:08;;;;;;;7.43;5.27;;;;;;;;;;5113661;28;20034;-70
2022/04/12 03:15:35;;;;;;;7.80;5.63;;;;;;;;;;5113869;28;20047;-69
2022/04/12 03:18:01;;;;;;;8.33;5.17;;;;;;;;;;5113761;28;20020;-69
2022/04/12 03:20:28;;;;;;;11.50;6.37;;;;;;;;;;5111743;28;20023;-69
2022/04/12 03:22:55;;;;;;;11.67;5.77;;;;;;;;;;5108571;28;20446;-69
2022/04/12 03:25:22;;;;;;;8.60;5.57;;;;;;;;;;5107659;28;20016;-69
2022/04/12 03:27:48;;;;;;;9.43;5.90;;;;;;;;;;5108617;28;20072;-69
2022/04/12 03:30:15;;;;;;;7.60;5.50;;;;;;;;;;5108841;28;20461;-69
2022/04/12 03:32:42;;;;;;;11.73;4.90;;;;;;;;;;5113138;28;20039;-69
2022/04/12 03:35:09;;;;;;;8.50;5.93;;;;;;;;;;5112728;28;20108;-69
2022/04/12 03:37:35;;;;;;;8.63;5.63;;;;;;;;;;5113639;28;20412;-69
2022/04/12 03:40:02;;;;;;;9.73;5.50;;;;;;;;;;5113016;28;20170;-69
2022/04/12 03:42:29;;;;;;;8.07;5.43;;;;;;;;;;5111742;28;20064;-69
2022/04/12 03:44:56;;;;;;;7.00;4.43;;;;;;;;;;5107902;28;20023;-69
2022/04/12 03:47:23;;;;;;;8.20;5.60;;;;;;;;;;5107550;28;20086;-69
2022/04/12 03:49:49;;;;;;;8.93;5.53;;;;;;;;;;5107750;28;20107;-69
2022/04/12 03:52:16;;;;;;;8.50;5.23;;;;;;;;;;5107926;28;20038;-69
2022/04/12 03:54:43;;;;;;;9.20;4.43;;;;;;;;;;5112403;28;20035;-69
2022/04/12 03:57:10;;;;;;;8.47;5.33;;;;;;;;;;5113116;28;20482;-69
2022/04/12 03:59:36;;;;;;;9.37;5.93;;;;;;;;;;5112952;28;20020;-69
2022/04/12 04:02:03;;;;;;;10.33;5.97;;;;;;;;;;5112788;28;20034;-69
2022/04/12 04:04:30;;;;;;;6.83;4.87;;;;;;;;;;5112165;28;20589;-69
2022/04/12 04:06:56;;;;;;;7.47;5.30;;;;;;;;;;5107568;28;20027;-69
2022/04/12 04:09:23;;;;;;;9.23;5.80;;;;;;;;;;5106868;28;20034;-70
2022/04/12 04:11:50;;;;;;;7.33;6.03;;;;;;;;;;5107384;28;20051;-69
2022/04/12 04:14:17;;;;;;;11.37;5.57;;;;;;;;;;5106372;28;20116;-69
2022/04/12 04:16:43;;;;;;;12.03;6.20;;;;;;;;;;5103849;28;20378;-69
2022/04/12 04:19:10;;;;;;;7.83;5.53;;;;;;;;;;5102797;28;20118;-68
2022/04/12 04:21:37;;;;;;;10.33;5.80;;;;;;;;;;5103435;28;20035;-68
2022/04/12 04:24:04;;;;;;;14.93;6.30;;;;;;;;;;5103504;28;20024;-69
2022/04/12 04:26:31;;;;;;;11.90;6.43;;;;;;;;;;5109350;28;20608;-68
2022/04/12 04:28:58;;;;;;;7.80;5.70;;;;;;;;;;5107631;28;20031;-69
2022/04/12 04:31:25;;;;;;;9.00;5.90;;;;;;;;;;5106459;28;20032;-69
2022/04/12 04:33:51;;;;;;;6.73;5.20;;;;;;;;;;5106555;28;20509;-69
2022/04/12 04:36:18;;;;;;;7.83;6.03;;;;;;;;;;5106895;28;20074;-68
2022/04/12 04:38:45;;;;;;;9.17;5.87;;;;;;;;;;5111196;28;20103;-69
2022/04/12 04:41:11;;;;;;;8.10;5.60;;;;;;;;;;5112029;28;20366;-68
2022/04/12 04:43:38;;;;;;;8.17;5.87;;;;;;;;;;5111528;28;20019;-68
2022/04/12 04:46:05;;;;;;;8.70;5.37;;;;;;;;;;5111990;28;20503;-69
2022/04/12 04:48:31;;;;;;;6.30;5.03;;;;;;;;;;5115641;28;20077;-69
2022/04/12 04:50:58;;;;;;;9.13;5.33;;;;;;;;;;5112217;28;20034;-69
2022/04/12 04:53:25;;;;;;;7.40;5.23;;;;;;;;;;5111563;28;20031;-66
2022/04/12 04:55:51;;;;;;;8.13;5.53;;;;;;;;;;5110967;28;20027;-67
2022/04/12 04:58:18;;;;;;;8.33;6.07;;;;;;;;;;5102763;28;20028;-68
2022/04/12 05:00:45;;;;;;;8.03;5.43;;;;;;;;;;5107292;28;20085;-68
2022/04/12 05:03:12;;;;;;;8.03;5.13;;;;;;;;;;5105991;28;20091;-68
2022/04/12 05:05:39;;;;;;;8.03;5.37;;;;;;;;;;5111999;28;20475;-68
2022/04/12 05:08:06;;;;;;;5.70;4.80;;;;;;;;;;5108734;28;20024;-67
2022/04/12 05:10:32;;;;;;;13.50;5.40;;;;;;;;;;5116037;28;20061;-64
2022/04/12 05:13:00;;;;;;;8.97;5.37;;;;;;;;;;5112680;28;20027;-65
2022/04/12 05:15:27;;;;;;;7.83;5.17;;;;;;;;;;5109924;28;20490;-64
2022/04/12 05:17:54;;;;;;;9.07;5.37;;;;;;;;;;5110134;28;20024;-64
2022/04/12 05:20:22;;;;;;;6.87;5.03;;;;;;;;;;5110681;28;20027;-65
2022/04/12 05:22:49;;;;;;;8.60;5.50;;;;;;;;;;5113383;28;20027;-64
2022/04/12 05:25:16;;;;;;;7.97;4.87;;;;;;;;;;5115470;28;20061;-64
2022/04/12 05:27:43;;;;;;;7.23;4.90;;;;;;;;;;5116098;28;20424;-67
2022/04/12 05:30:12;;;;;;;7.27;4.83;;;;;;;;;;5115906;28;20024;-68
2022/04/12 05:32:39;;;;;;;6.53;4.83;;;;;;;;;;5115488;28;20442;-66
2022/04/12 05:35:06;;;;;;;9.20;5.27;;;;;;;;;;5112940;28;20483;-69
2022/04/12 05:37:33;;;;;;;7.70;4.87;;;;;;;;;;5110288;28;20028;-66
2022/04/12 05:40:04;;;;;;;7.23;4.73;;;;;;;;;;5110171;28;20027;-67
2022/04/12 05:42:30;;;;;;;8.47;4.90;;;;;;;;;;5109985;28;20031;-67
2022/04/12 05:44:57;;;;;;;9.67;5.80;;;;;;;;;;5111897;28;20031;-67
2022/04/12 05:47:24;;;;;;;7.90;5.10;;;;;;;;;;5115087;28;20435;-68
2022/04/12 05:49:51;;;;;;;7.23;5.13;;;;;;;;;;5115225;28;20356;-67
2022/04/12 05:52:17;;;;;;;10.80;5.00;;;;;;;;;;5114936;28;20039;-67
2022/04/12 05:54:44;;;;;;;9.97;4.67;;;;;;;;;;5115524;28;20023;-67
2022/04/12 05:57:11;;;;;;;7.30;4.80;;;;;;;;;;5112820;28;21579;-66
2022/04/12 05:59:38;;;;;;;6.67;4.87;;;;;;;;;;5110095;28;20038;-66
2022/04/12 06:02:04;;;;;;;7.63;4.87;;;;;;;;;;5109756;28;20028;-66
2022/04/12 06:04:31;;;;;;;7.17;4.70;;;;;;;;;;5109474;28;20032;-66
2022/04/12 06:06:58;;;;;;;9.10;4.70;;;;;;;;;;5111163;28;20023;-66
2022/04/12 06:09:25;;;;;;;8.93;4.90;;;;;;;;;;5114949;28;20422;-66
2022/04/12 06:11:51;;;;;;;8.93;5.30;;;;;;;;;;5114849;28;20490;-66
2022/04/12 06:14:18;;;;;;;7.83;5.17;;;;;;;;;;5114982;28;20470;-65
2022/04/12 06:16:45;;;;;;;6.87;5.30;;;;;;;;;;5114787;28;20023;-66
2022/04/12 06:19:12;;;;;;;7.47;4.60;;;;;;;;;;5112709;28;20408;-66
2022/04/12 06:21:38;;;;;;;7.97;5.37;;;;;;;;;;5109097;28;20504;-67
2022/04/12 06:24:06;;;;;;;6.77;5.47;;;;;;;;;;5109613;28;20027;-66
2022/04/12 06:26:33;;;;;;;8.20;6.03;;;;;;;;;;5109473;28;20031;-66
2022/04/12 06:28:59;;;;;;;8.77;6.07;;;;;;;;;;5110072;28;20028;-66
2022/04/12 06:31:26;;;;;;;10.17;6.37;;;;;;;;;;5114551;28;20035;-67
2022/04/12 06:33:53;;;;;;;8.07;6.37;;;;;;;;;;5114830;28;20080;-67
2022/04/12 06:36:20;;;;;;;7.07;5.17;;;;;;;;;;5114344;28;20030;-68
2022/04/12 06:38:46;;;;;;;8.30;5.03;;;;;;;;;;5114404;28;20012;-69
2022/04/12 06:41:13;;;;;;;10.50;4.97;;;;;;;;;;5113231;28;20019;-68
2022/04/12 06:43:40;;;;;;;8.17;5.37;;;;;;;;;;5108864;28;20031;-68
2022/04/12 06:46:06;;;;;;;7.73;5.40;;;;;;;;;;5097839;28;20027;-67
2022/04/12 06:48:33;;;;;;;10.07;5.73;;;;;;;;;;5109320;28;20027;-67
2022/04/12 06:51:00;;;;;;;11.23;6.33;;;;;;;;;;5108723;28;20046;-67
2022/04/12 06:53:28;;;;;;;7.53;4.93;;;;;;;;;;5114384;28;20027;-67
2022/04/12 06:55:55;;;;;;;12.03;5.73;;;;;;;;;;5113793;28;20115;-68
2022/04/12 06:58:22;;;;;;;8.63;6.03;;;;;;;;;;5114392;28;20047;-67
2022/04/12 07:00:48;;;;;;;7.53;5.37;;;;;;;;;;5113885;28;20462;-68
2022/04/12 07:03:15;;;;;;;9.57;5.47;;;;;;;;;;5113616;28;20038;-67
2022/04/12 07:05:42;;;;;;;8.47;5.60;;;;;;;;;;5108563;28;20092;-68
2022/04/12 07:08:11;;;;;;;7.47;5.13;;;;;;;;;;5108634;28;20032;-67
2022/04/12 07:10:38;;;;;;;7.70;5.53;;;;;;;;;;5107675;28;20031;-66
2022/04/12 07:13:05;;;;;;;11.33;5.93;;;;;;;;;;5108244;28;20481;-68
2022/04/12 07:15:31;;;;;;;7.20;5.47;;;;;;;;;;5112889;28;20028;-67
2022/04/12 07:17:59;;;;;;;8.17;5.97;;;;;;;;;;5113380;28;20104;-67
2022/04/12 07:20:26;;;;;;;10.00;5.27;;;;;;;;;;5113809;28;20031;-67
2022/04/12 07:22:52;;;;;;;8.53;5.40;;;;;;;;;;5113354;28;20040;-68
2022/04/12 07:25:19;;;;;;;8.17;5.47;;;;;;;;;;5113640;28;20015;-67
2022/04/12 07:27:46;;;;;;;8.40;5.40;;;;;;;;;;5108457;28;20077;-67
2022/04/12 07:30:13;;;;;;;8.40;6.13;;;;;;;;;;5107975;28;20103;-68
2022/04/12 07:32:40;;;;;;;7.17;5.63;;;;;;;;;;5107756;28;20043;-68
2022/04/12 07:35:07;;;;;;;8.27;5.00;;;;;;;;;;5108106;28;20427;-68
2022/04/12 07:37:33;;;;;;;6.60;5.40;;;;;;;;;;5112220;28;20429;-67
2022/04/12 07:40:00;;;;;;;11.43;5.17;;;;;;;;;;5113387;28;20051;-67
2022/04/12 07:42:27;;;;;;;7.77;4.80;;;;;;;;;;5113015;28;20013;-67
2022/04/12 07:44:54;;;;;;;12.50;6.17;;;;;;;;;;5113288;28;20031;-67
2022/04/12 07:47:20;;;;;;;6.93;5.27;;;;;;;;;;5113039;28;20027;-67
2022/04/12 07:49:47;;;;;;;7.93;5.63;;;;;;;;;;5108895;28;20062;-67
2022/04/12 07:52:14;;;;;;;9.27;5.97;;;;;;;;;;5107398;28;20542;-68
2022/04/12 07:54:41;;;;;;;8.27;5.70;;;;;;;;;;5107534;28;20373;-67
2022/04/12 07:57:07;;;;;;;7.20;5.80;;;;;;;;;;5107280;28;20482;-67
2022/04/12 07:59:34;;;;;;;9.97;5.93;;;;;;;;;;5111002;28;20027;-67
2022/04/12 08:02:01;;;;;;;7.83;5.83;;;;;;;;;;5112890;28;20102;-66
2022/04/12 08:04:28;;;;;;;6.07;4.37;;;;;;;;;;5112645;28;20019;-66
2022/04/12 08:06:55;;;;;;;10.03;5.57;;;;;;;;;;5112808;28;20027;-65
2022/04/12 08:09:21;;;;;;;8.57;5.27;;;;;;;;;;5112895;28;20478;-65
2022/04/12 08:11:48;;;;;;;6.87;4.63;;;;;;;;;;5109504;28;20049;-67
2022/04/12 08:14:15;;;;;;;10.40;6.10;;;;;;;;;;5107650;28;20390;-66
2022/04/12 08:16:42;;;;;;;9.93;6.07;;;;;;;;;;5107253;28;20043;-67
2022/04/12 08:19:08;;;;;;;8.17;5.47;;;;;;;;;;5107502;28;20134;-66
2022/04/12 08:21:37;;;;;;;9.63;6.17;;;;;;;;;;5108250;28;20022;-66
2022/04/12 08:24:04;;;;;;;9.00;5.83;;;;;;;;;;5112552;28;20042;-67
2022/04/12 08:26:31;;;;;;;7.80;5.10;;;;;;;;;;5112294;28;20031;-67
2022/04/12 08:28:57;;;;;;;11.90;6.27;;;;;;;;;;5112458;28;20115;-66
2022/04/12 08:31:24;;;;;;;7.77;6.03;;;;;;;;;;5112437;28;20031;-66
2022/04/12 08:33:51;;;;;;;10.63;6.20;;;;;;;;;;5109891;28;20034;-67
2022/04/12 08:36:21;;;;;;;8.10;5.60;;;;;;;;;;5106609;28;20028;-66
2022/04/12 08:38:49;;;;;;;8.03;5.53;;;;;;;;;;5107265;28;20035;-66
2022/04/12 08:41:16;;;;;;;9.40;6.33;;;;;;;;;;5107143;28;20051;-67
2022/04/12 08:43:46;;;;;;;9.10;6.60;;;;;;;;;;5105211;28;20490;-67
2022/04/12 08:46:12;;;;;;;7.77;5.80;;;;;;;;;;5112258;28;20034;-67
2022/04/12 08:48:40;;;;;;;12.53;7.17;;;;;;;;;;5112365;28;20020;-66
2022/04/12 08:51:06;;;;;;;11.50;7.30;;;;;;;;;;5111883;28;20030;-67
2022/04/12 08:53:33;;;;;;;10.20;7.17;;;;;;;;;;5112372;28;20030;-67
2022/04/12 08:56:00;;;;;;;8.40;6.53;;;;;;;;;;5110166;28;20478;-68
2022/04/12 08:58:28;;;;;;;10.17;6.70;;;;;;;;;;5106612;28;20024;-67
2022/04/12 09:00:54;;;;;;;9.67;6.20;;;;;;;;;;5106905;28;20012;-67
2022/04/12 09:03:21;;;;;;;7.03;5.57;;;;;;;;;;5106750;28;20042;-67
2022/04/12 09:05:48;;;;;;;8.30;5.40;;;;;;;;;;5108471;28;20348;-66
2022/04/12 09:08:31;;;;;;;10.97;6.00;;;;;;;;;;5111648;28;20024;-65
2022/04/12 09:10:59;;;;;;;8.63;6.37;;;;;;;;;;5112238;28;20031;-66
2022/04/12 09:13:26;;;;;;;10.47;6.27;;;;;;;;;;5112128;28;20027;-66
2022/04/12 09:15:53;;;;;;;9.70;5.53;;;;;;;;;;5112066;28;20398;-66
2022/04/12 09:18:39;;;;;;;8.67;6.20;;;;;;;;;;5109734;28;20028;-66
2022/04/12 09:21:15;;;;;;;8.00;6.43;;;;;;;;;;5106912;28;20095;-65
2022/04/12 09:23:42;;;;;;;9.07;5.57;;;;;;;;;;5106581;28;20758;-65
2022/04/12 09:26:09;;;;;;;8.00;5.30;;;;;;;;;;5106937;28;20490;-66
2022/04/12 09:28:40;;;;;;;8.83;6.50;;;;;;;;;;5108949;28;20028;-65
2022/04/12 09:31:15;;;;;;;9.10;5.77;;;;;;;;;;5111914;28;20063;-65
2022/04/12 09:33:43;;;;;;;10.70;6.17;;;;;;;;;;5114064;28;20031;-65
2022/04/12 09:36:10;;;;;;;12.70;6.20;;;;;;;;;;5115699;28;20031;-65
2022/04/12 09:38:38;;;;;;;7.60;6.30;;;;;;;;;;5115502;28;20020;-66
2022/04/12 09:41:23;;;;;;;10.00;6.23;;;;;;;;;;5112621;28;20039;-66
2022/04/12 09:43:52;;;;;;;10.68;5.43;;;;;;;;;;5110272;28;20037;-66
2022/04/12 09:46:19;;;;;;;10.23;6.90;;;;;;;;;;5110184;28;20807;-68
2022/04/12 09:48:47;;;;;;;12.50;6.87;;;;;;;;;;5110354;28;20073;-67
2022/04/12 09:51:14;;;;;;;11.07;6.87;;;;;;;;;;5113049;28;20035;-68
2022/04/12 09:53:41;;;;;;;9.50;6.47;;;;;;;;;;5115312;28;20408;-68
2022/04/12 09:56:24;;;;;;;8.57;6.37;;;;;;;;;;5114453;28;20028;-69
2022/04/12 09:58:52;;;;;;;8.80;6.50;;;;;;;;;;5115515;28;20069;-68
2022/04/12 10:01:19;;;;;;;8.00;6.43;;;;;;;;;;5115205;28;20095;-67
2022/04/12 10:03:47;;;;;;;9.67;6.30;;;;;;;;;;5111325;28;20053;-67
2022/04/12 10:06:14;;;;;;;8.00;5.30;;;;;;;;;;5109654;28;20027;-68
2022/04/12 10:08:42;;;;;;;10.83;6.87;;;;;;;;;;5109609;28;20027;-67
2022/04/12 10:11:09;;;;;;;8.87;5.87;;;;;;;;;;5109507;28;20417;-68
2022/04/12 10:13:36;;;;;;;9.77;6.23;;;;;;;;;;5112871;28;20035;-67
2022/04/12 10:16:03;;;;;;;9.83;6.90;;;;;;;;;;5115188;28;20138;-65
2022/04/12 10:18:29;;;;;;;9.63;6.20;;;;;;;;;;5114654;28;20076;-65
2022/04/12 10:20:58;;;;;;;10.53;6.50;;;;;;;;;;5115076;28;20051;-65
2022/04/12 10:23:26;;;;;;;12.00;6.43;;;;;;;;;;5114497;28;20176;-66
2022/04/12 10:25:54;;;;;;;8.70;5.77;;;;;;;;;;5111172;28;20074;-65
2022/04/12 10:28:22;;;;;;;10.60;6.53;;;;;;;;;;5109338;28;20535;-65
2022/04/12 10:30:49;;;;;;;12.13;6.50;;;;;;;;;;5109071;28;20027;-66
2022/04/12 10:33:18;;;;;;;9.57;6.17;;;;;;;;;;5109609;28;20329;-65
2022/04/12 10:35:45;;;;;;;9.77;6.33;;;;;;;;;;5111714;28;20031;-65
2022/04/12 10:38:16;;;;;;;7.13;5.63;;;;;;;;;;5114118;28;20026;-66
2022/04/12 10:40:46;;;;;;;8.23;5.80;;;;;;;;;;5114798;28;20016;-65
2022/04/12 10:43:14;;;;;;;9.40;5.87;;;;;;;;;;5113962;28;20120;-66
2022/04/12 10:45:48;;;;;;;9.17;5.40;;;;;;;;;;5113553;28;20053;-66
2022/04/12 10:48:22;;;;;;;7.28;4.55;;;;;;;;;;5110810;28;20112;-65
2022/04/12 10:50:58;;;;;;;9.82;5.75;;;;;;;;;;5108499;28;20501;-66
2022/04/12 10:53:40;;;;;;;8.57;5.50;;;;;;;;;;5108992;28;20028;-66
2022/04/12 10:56:14;;;;;;;8.27;5.47;;;;;;;;;;5108961;28;20028;-66
2022/04/12 10:58:41;;;;;;;7.77;5.07;;;;;;;;;;5112264;28;20023;-66
2022/04/12 11:01:12;;;;;;;8.47;5.17;;;;;;;;;;5113731;28;20023;-66
2022/04/12 11:03:42;;;;;;;7.83;4.97;;;;;;;;;;5113983;28;20389;-65
2022/04/12 11:06:12;;;;;;;7.43;4.97;;;;;;;;;;5113889;28;20023;-65
2022/04/12 11:08:39;;;;;;;9.43;5.10;;;;;;;;;;5114011;28;20098;-64
2022/04/12 11:11:06;;;;;;;11.20;4.97;;;;;;;;;;5109327;28;20031;-64
2022/04/12 11:13:33;;;;;;;7.47;4.93;;;;;;;;;;5107995;28;20023;-66
2022/04/12 11:16:00;;;;;;;10.67;5.80;;;;;;;;;;5107958;28;20048;-65
2022/04/12 11:18:46;;;;;;;7.77;5.60;;;;;;;;;;5091459;28;20055;-65
2022/04/12 11:21:12;;;;;;;7.30;4.63;;;;;;;;;;5102541;28;20032;-64
2022/04/12 11:23:58;;;;;;;8.97;5.57;;;;;;;;;;5113739;28;20031;-64
2022/04/12 11:26:29;;;;;;;11.30;6.07;;;;;;;;;;5113634;28;20049;-65
2022/04/12 11:28:56;;;;;;;8.93;5.20;;;;;;;;;;5113825;28;20095;-65
2022/04/12 11:31:23;;;;;;;7.93;4.90;;;;;;;;;;5113324;28;20031;-65
2022/04/12 11:33:49;;;;;;;8.83;5.30;;;;;;;;;;5108148;28;20035;-65
2022/04/12 11:36:20;;;;;;;6.60;4.70;;;;;;;;;;5108276;28;20370;-65
2022/04/12 11:38:48;;;;;;;8.83;5.83;;;;;;;;;;5107904;28;20023;-65
2022/04/12 11:41:16;;;;;;;7.30;5.27;;;;;;;;;;5108056;28;20065;-66
2022/04/12 11:43:42;;;;;;;8.43;4.93;;;;;;;;;;5113042;28;20462;-65
2022/04/12 11:46:17;;;;;;;8.77;5.37;;;;;;;;;;5112919;28;20110;-66
2022/04/12 11:48:43;;;;;;;10.02;5.40;;;;;;;;;;5113074;28;20374;-65
2022/04/12 11:51:10;;;;;;;10.77;6.63;;;;;;;;;;5112821;28;20085;-65
2022/04/12 11:53:47;;;;;;;11.00;6.57;;;;;;;;;;5112917;28;20072;-65
2022/04/12 11:56:14;;;;;;;8.70;5.50;;;;;;;;;;5101336;28;20024;-65
2022/04/12 11:58:41;;;;;;;9.47;5.83;;;;;;;;;;5102510;28;20027;-65
2022/04/12 12:01:10;;;;;;;9.27;6.07;;;;;;;;;;5101331;28;20019;-65
2022/04/12 12:03:44;;;;;;;12.60;6.53;;;;;;;;;;5096854;28;20081;-64
2022/04/12 12:06:10;;;;;;;10.43;5.70;;;;;;;;;;5103267;28;20702;-64
2022/04/12 12:08:37;;;;;;;7.97;5.23;;;;;;;;;;5103081;28;20351;-64
2022/04/12 12:11:13;;;;;;;10.27;6.00;;;;;;;;;;5102284;28;20582;-65
2022/04/12 12:13:39;;;;;;;7.50;5.00;;;;;;;;;;5104447;28;20020;-64
2022/04/12 12:16:15;;;;;;;9.83;4.93;;;;;;;;;;5103097;28;20020;-65
2022/04/12 12:18:42;;;;;;;8.83;5.90;;;;;;;;;;5099070;28;20429;-64
2022/04/12 12:21:09;;;;;;;9.73;5.70;;;;;;;;;;5098903;28;20019;-65
2022/04/12 12:23:35;;;;;;;10.43;6.47;;;;;;;;;;5101053;28;20486;-64
2022/04/12 12:26:02;;;;;;;12.23;7.37;;;;;;;;;;5107633;28;20500;-64
2022/04/12 12:28:29;;;;;;;10.87;6.80;;;;;;;;;;5112497;28;20031;-64
2022/04/12 12:31:02;;;;;;;12.17;7.07;;;;;;;;;;5111830;28;20482;-67
2022/04/12 12:33:41;;;;;;;13.17;6.90;;;;;;;;;;5104640;28;20024;-66
2022/04/12 12:36:28;;;;;;;9.60;6.90;;;;;;;;;;5108261;28;20059;-67
2022/04/12 12:38:55;;;;;;;13.63;8.00;;;;;;;;;;5108963;28;20034;-66
2022/04/12 12:41:26;;;;;;;10.10;6.50;;;;;;;;;;5107275;28;20092;-65
2022/04/12 12:43:57;;;;;;;11.90;6.40;;;;;;;;;;5106982;28;20066;-65
2022/04/12 12:46:27;;;;;;;11.27;6.23;;;;;;;;;;5106950;28;20020;-65
2022/04/12 12:49:06;;;;;;;11.97;7.60;;;;;;;;;;5108881;28;20024;-65
2022/04/12 12:51:33;;;;;;;11.30;6.20;;;;;;;;;;5111989;28;20149;-65
2022/04/12 12:54:01;;;;;;;9.37;7.33;;;;;;;;;;5112305;28;20442;-64
2022/04/12 12:56:37;;;;;;;14.60;7.77;;;;;;;;;;5112323;28;20035;-64
2022/04/12 12:59:13;;;;;;;13.67;7.67;;;;;;;;;;5111182;28;20031;-65
2022/04/12 13:01:44;;;;;;;15.13;7.13;;;;;;;;;;5105559;28;20054;-63
2022/04/12 13:04:31;;;;;;;10.83;6.87;;;;;;;;;;5104865;28;20090;-62
2022/04/12 13:07:07;;;;;;;11.13;7.13;;;;;;;;;;5106699;28;20030;-62
2022/04/12 13:09:39;;;;;;;12.17;7.63;;;;;;;;;;5110291;28;20393;-62
2022/04/12 13:12:07;;;;;;;11.30;8.13;;;;;;;;;;5093640;28;20036;-63
2022/04/12 13:14:34;;;;;;;12.87;8.17;;;;;;;;;;5110911;28;20031;-63
2022/04/12 13:17:01;;;;;;;12.17;7.60;;;;;;;;;;5113898;28;20024;-62
2022/04/12 13:19:29;;;;;;;12.40;7.33;;;;;;;;;;5115930;28;20360;-62
2022/04/12 13:21:55;;;;;;;8.57;6.60;;;;;;;;;;5116189;28;20027;-63
2022/04/12 13:24:23;;;;;;;12.90;7.70;;;;;;;;;;5111782;28;20096;-65
2022/04/12 13:26:50;;;;;;;12.80;7.73;;;;;;;;;;5110115;28;20494;-62
2022/04/12 13:29:18;;;;;;;14.67;9.27;;;;;;;;;;5110322;28;20027;-62
2022/04/12 13:31:45;;;;;;;11.67;8.10;;;;;;;;;;5110216;28;20118;-62
2022/04/12 13:34:12;;;;;;;10.20;7.63;;;;;;;;;;5113488;28;20020;-62
2022/04/12 13:36:39;;;;;;;9.50;7.87;;;;;;;;;;5115952;28;20437;-62
2022/04/12 13:39:08;;;;;;;12.00;7.70;;;;;;;;;;5115588;28;20032;-63
2022/04/12 13:41:38;;;;;;;18.70;8.33;;;;;;;;;;5114696;28;20019;-63
2022/04/12 13:44:04;;;;;;;10.53;7.53;;;;;;;;;;5114110;28;20038;-64
2022/04/12 13:46:31;;;;;;;12.73;7.63;;;;;;;;;;5111309;28;20051;-62
2022/04/12 13:48:58;;;;;;;13.80;7.83;;;;;;;;;;5109685;28;20027;-63
2022/04/12 13:51:25;;;;;;;12.90;8.10;;;;;;;;;;5109074;28;20031;-63
2022/04/12 13:53:51;;;;;;;13.23;7.53;;;;;;;;;;5109800;28;20111;-62
2022/04/12 13:56:18;;;;;;;10.07;7.47;;;;;;;;;;5112386;28;20020;-63
2022/04/12 13:58:45;;;;;;;16.17;7.70;;;;;;;;;;5115132;28;20043;-63
2022/04/12 14:01:12;;;;;;;10.30;7.60;;;;;;;;;;5115344;28;20490;-63
2022/04/12 14:03:38;;;;;;;12.60;7.77;;;;;;;;;;5102782;28;20047;-63
2022/04/12 14:06:05;;;;;;;14.83;9.13;;;;;;;;;;5115119;28;20027;-63
2022/04/12 14:08:33;;;;;;;12.47;7.63;;;;;;;;;;5111343;28;20027;-63
2022/04/12 14:11:00;;;;;;;10.93;7.90;;;;;;;;;;5109547;28;20378;-64
2022/04/12 14:13:27;;;;;;;10.60;8.20;;;;;;;;;;5108831;28;20359;-63
2022/04/12 14:15:54;;;;;;;10.10;8.00;;;;;;;;;;5108831;28;20043;-63
2022/04/12 14:18:21;;;;;;;13.03;7.60;;;;;;;;;;5111799;28;20111;-63
2022/04/12 14:20:48;;;;;;;14.37;8.60;;;;;;;;;;5114487;28;20032;-63
2022/04/12 14:23:15;;;;;;;11.67;8.30;;;;;;;;;;5114877;28;20020;-63
2022/04/12 14:25:41;;;;;;;17.77;10.20;;;;;;;;;;5114595;28;20054;-64
2022/04/12 14:28:10;;;;;;;19.40;9.93;;;;;;;;;;5114354;28;20023;-63
2022/04/12 14:30:38;;;;;;;17.13;9.30;;;;;;;;;;5111334;28;20024;-63
2022/04/12 14:33:05;;;;;;;15.03;8.67;;;;;;;;;;5108895;28;20057;-63
2022/04/12 14:35:32;;;;;;;19.10;10.50;;;;;;;;;;5108896;28;20028;-63
2022/04/12 14:38:00;;;;;;;15.77;10.27;;;;;;;;;;5109349;28;20023;-64
2022/04/12 14:40:26;;;;;;;11.87;8.20;;;;;;;;;;5111070;28;20028;-64
2022/04/12 14:42:53;;;;;;;18.30;9.87;;;;;;;;;;5114591;28;20032;-63